createdAt,value
2019-02-23T00:01:33.810Z,3.27
2019-02-23T00:04:02.620Z,3.60
2019-02-23T00:06:31.369Z,3.40
2019-02-23T00:09:00.121Z,3.27
2019-02-23T00:11:28.971Z,3.37
2019-02-23T00:13:57.744Z,3.10
2019-02-23T00:16:26.500Z,3.37
2019-02-23T00:18:55.327Z,3.40
2019-02-23T00:21:24.099Z,3.43
2019-02-23T00:23:52.889Z,3.40
2019-02-23T00:26:21.669Z,3.17
2019-02-23T00:28:50.487Z,3.50
2019-02-23T00:31:20.189Z,3.57
2019-02-23T00:33:48.929Z,3.60
2019-02-23T00:36:17.691Z,3.53
2019-02-23T00:38:46.685Z,3.63
2019-02-23T00:41:15.471Z,3.60
2019-02-23T00:43:44.327Z,3.40
2019-02-23T00:46:13.075Z,3.40
2019-02-23T00:48:41.833Z,3.50
2019-02-23T00:51:10.611Z,3.57
2019-02-23T00:53:39.359Z,3.33
2019-02-23T00:56:08.121Z,4.00
2019-02-23T00:58:36.874Z,3.67
2019-02-23T01:01:05.633Z,3.60
2019-02-23T01:03:34.399Z,3.53
2019-02-23T01:06:03.163Z,3.30
2019-02-23T01:08:31.983Z,3.37
2019-02-23T01:11:00.849Z,3.50
2019-02-23T01:13:29.629Z,3.30
2019-02-23T01:15:58.620Z,3.57
2019-02-23T01:18:27.419Z,3.40
2019-02-23T01:20:56.158Z,3.67
2019-02-23T01:23:24.977Z,3.70
2019-02-23T01:25:53.724Z,3.40
2019-02-23T01:28:22.578Z,3.93
2019-02-23T01:30:51.316Z,3.93
2019-02-23T01:33:20.090Z,3.67
2019-02-23T01:35:48.837Z,3.17
2019-02-23T01:38:17.587Z,3.90
2019-02-23T01:40:46.342Z,4.13
2019-02-23T01:43:15.208Z,3.43
2019-02-23T01:45:43.963Z,3.50
2019-02-23T01:48:12.723Z,3.50
2019-02-23T01:50:41.498Z,3.90
2019-02-23T01:53:10.283Z,3.27
2019-02-23T01:55:39.025Z,3.87
2019-02-23T01:58:07.833Z,3.80
2019-02-23T02:00:36.603Z,3.87
2019-02-23T02:03:05.451Z,3.70
2019-02-23T02:05:34.265Z,3.83
2019-02-23T02:08:03.149Z,4.30
2019-02-23T02:10:31.948Z,3.87
2019-02-23T02:13:00.713Z,3.50
2019-02-23T02:15:29.490Z,3.70
2019-02-23T02:17:58.258Z,3.80
2019-02-23T02:20:27.041Z,3.87
2019-02-23T02:22:55.803Z,4.10
2019-02-23T02:25:24.548Z,4.03
2019-02-23T02:27:53.379Z,3.87
2019-02-23T02:30:22.128Z,3.80
2019-02-23T02:32:50.895Z,3.50
2019-02-23T02:35:19.747Z,3.70
2019-02-23T02:37:48.520Z,4.33
2019-02-23T02:40:17.369Z,3.70
2019-02-23T02:42:46.251Z,3.63
2019-02-23T02:45:15.018Z,3.80
2019-02-23T02:47:43.779Z,3.27
2019-02-23T02:50:23.965Z,3.60
2019-02-23T02:52:43.103Z,3.57
2019-02-23T02:55:11.855Z,4.10
2019-02-23T02:57:40.605Z,3.70
2019-02-23T03:00:11.175Z,3.80
2019-02-23T03:02:39.955Z,3.53
2019-02-23T03:05:08.834Z,3.80
2019-02-23T03:07:37.648Z,3.93
2019-02-23T03:10:06.500Z,3.70
2019-02-23T03:12:35.267Z,3.70
2019-02-23T03:15:04.049Z,3.93
2019-02-23T03:17:32.791Z,3.60
2019-02-23T03:20:01.583Z,3.83
2019-02-23T03:22:30.338Z,3.50
2019-02-23T03:24:59.095Z,3.57
2019-02-23T03:27:27.854Z,3.77
2019-02-23T03:29:56.621Z,3.63
2019-02-23T03:32:25.385Z,3.60
2019-02-23T03:34:54.136Z,3.83
2019-02-23T03:37:22.920Z,3.43
2019-02-23T03:39:51.668Z,3.80
2019-02-23T03:42:20.528Z,3.63
2019-02-23T03:44:49.293Z,3.93
2019-02-23T03:47:18.052Z,3.50
2019-02-23T03:49:46.809Z,3.60
2019-02-23T03:52:15.554Z,3.30
2019-02-23T03:54:44.335Z,3.40
2019-02-23T03:57:13.096Z,3.60
2019-02-23T03:59:41.875Z,3.77
2019-02-23T04:02:10.633Z,3.70
2019-02-23T04:04:39.408Z,3.60
2019-02-23T04:07:08.179Z,4.10
2019-02-23T04:09:36.958Z,3.67
2019-02-23T04:12:05.720Z,3.70
2019-02-23T04:14:34.454Z,3.37
2019-02-23T04:17:03.211Z,3.60
2019-02-23T04:19:31.999Z,3.60
2019-02-23T04:22:00.822Z,3.63
2019-02-23T04:24:29.552Z,3.73
2019-02-23T04:26:58.321Z,3.77
2019-02-23T04:29:27.078Z,3.40
2019-02-23T04:31:55.810Z,3.60
2019-02-23T04:34:24.704Z,3.47
2019-02-23T04:36:53.438Z,3.50
2019-02-23T04:39:22.189Z,3.77
2019-02-23T04:41:50.941Z,3.77
2019-02-23T04:44:19.698Z,3.70
2019-02-23T04:46:48.519Z,3.50
2019-02-23T04:49:17.310Z,3.43
2019-02-23T04:51:46.351Z,2.80
2019-02-23T04:54:15.204Z,3.60
2019-02-23T04:56:43.954Z,3.90
2019-02-23T04:59:12.786Z,3.73
2019-02-23T05:01:41.557Z,3.60
2019-02-23T05:04:10.344Z,3.90
2019-02-23T05:06:39.162Z,3.77
2019-02-23T05:09:07.941Z,3.40
2019-02-23T05:11:36.718Z,6.30
2019-02-23T05:14:05.460Z,3.60
2019-02-23T05:16:34.333Z,13.07
2019-02-23T05:19:03.154Z,9.87
2019-02-23T05:21:31.906Z,12.63
2019-02-23T05:24:00.652Z,19.53
2019-02-23T05:26:29.411Z,5.47
2019-02-23T05:28:58.230Z,6.67
2019-02-23T05:31:26.998Z,4.80
2019-02-23T05:33:55.751Z,4.50
2019-02-23T05:36:24.565Z,7.93
2019-02-23T05:38:53.380Z,7.90
2019-02-23T05:41:22.143Z,9.93
2019-02-23T05:43:51.157Z,11.57
2019-02-23T05:46:20.074Z,9.20
2019-02-23T05:48:48.928Z,13.77
2019-02-23T05:51:17.794Z,13.53
2019-02-23T05:53:46.726Z,6.57
2019-02-23T05:56:16.391Z,3.80
2019-02-23T05:58:45.293Z,9.23
2019-02-23T06:01:14.074Z,4.70
2019-02-23T06:03:42.889Z,4.13
2019-02-23T06:06:11.672Z,5.03
2019-02-23T06:08:40.642Z,5.33
2019-02-23T06:11:09.710Z,4.07
2019-02-23T06:13:38.489Z,7.80
2019-02-23T06:16:07.372Z,3.80
2019-02-23T06:18:36.367Z,4.77
2019-02-23T06:21:05.140Z,4.90
2019-02-23T06:23:34.124Z,4.00
2019-02-23T06:26:03.137Z,4.00
2019-02-23T06:28:32.023Z,4.10
2019-02-23T06:31:00.909Z,4.00
2019-02-23T06:33:29.724Z,4.20
2019-02-23T06:35:58.488Z,3.97
2019-02-23T06:38:27.231Z,4.37
2019-02-23T06:40:55.994Z,3.77
2019-02-23T06:43:24.739Z,4.47
2019-02-23T06:45:53.559Z,4.00
2019-02-23T06:48:22.307Z,4.30
2019-02-23T06:50:51.068Z,3.93
2019-02-23T06:53:19.907Z,4.20
2019-02-23T06:55:48.636Z,3.80
2019-02-23T06:58:17.433Z,5.03
2019-02-23T07:00:46.161Z,4.20
2019-02-23T07:03:14.972Z,3.90
2019-02-23T07:05:43.720Z,4.00
2019-02-23T07:08:12.533Z,3.57
2019-02-23T07:10:41.281Z,3.80
2019-02-23T07:13:10.031Z,3.80
2019-02-23T07:15:38.793Z,4.07
2019-02-23T07:18:07.547Z,4.10
2019-02-23T07:20:43.711Z,4.07
2019-02-23T07:23:06.747Z,3.87
2019-02-23T07:25:35.513Z,4.00
2019-02-23T07:28:04.250Z,4.00
2019-02-23T07:30:33.010Z,3.60
2019-02-23T07:33:01.758Z,3.90
2019-02-23T07:35:30.489Z,3.50
2019-02-23T07:37:59.278Z,3.90
2019-02-23T07:40:28.118Z,4.00
2019-02-23T07:42:56.901Z,4.03
2019-02-23T07:45:25.663Z,4.10
2019-02-23T07:47:54.422Z,4.10
2019-02-23T07:50:23.231Z,4.63
2019-02-23T07:52:51.979Z,3.50
2019-02-23T07:55:20.797Z,4.10
2019-02-23T07:57:49.601Z,3.70
2019-02-23T08:00:18.389Z,4.43
2019-02-23T08:02:47.156Z,4.37
2019-02-23T08:05:16.001Z,4.57
2019-02-23T08:07:44.741Z,4.50
2019-02-23T08:10:13.578Z,4.50
2019-02-23T08:12:42.352Z,3.93
2019-02-23T08:15:11.116Z,4.03
2019-02-23T08:17:39.879Z,3.80
2019-02-23T08:20:08.733Z,4.20
2019-02-23T08:22:37.770Z,4.03
2019-02-23T08:25:06.842Z,4.57
2019-02-23T08:27:35.690Z,4.43
2019-02-23T08:30:05.175Z,4.03
2019-02-23T08:32:34.060Z,4.50
2019-02-23T08:35:02.814Z,5.67
2019-02-23T08:37:31.557Z,7.03
2019-02-23T08:40:00.306Z,8.87
2019-02-23T08:42:29.047Z,6.20
2019-02-23T08:44:57.821Z,8.47
2019-02-23T08:47:26.683Z,6.63
2019-02-23T08:49:55.447Z,18.83
2019-02-23T08:52:24.195Z,21.97
2019-02-23T08:54:53.032Z,33.70
2019-02-23T08:57:21.798Z,14.63
2019-02-23T08:59:50.544Z,22.77
2019-02-23T09:02:19.312Z,13.17
2019-02-23T09:04:48.146Z,8.43
2019-02-23T09:07:17.018Z,17.70
2019-02-23T09:09:45.942Z,13.00
2019-02-23T09:12:14.740Z,5.63
2019-02-23T09:14:43.526Z,14.20
2019-02-23T09:17:12.366Z,8.87
2019-02-23T09:19:41.253Z,24.00
2019-02-23T09:22:10.191Z,21.30
2019-02-23T09:24:38.966Z,17.00
2019-02-23T09:27:07.712Z,22.43
2019-02-23T09:29:36.583Z,24.47
2019-02-23T09:32:05.501Z,27.13
2019-02-23T09:34:34.249Z,15.83
2019-02-23T09:37:03.027Z,12.90
2019-02-23T09:39:31.849Z,15.93
2019-02-23T09:42:07.539Z,19.23
2019-02-23T09:44:31.298Z,19.13
2019-02-23T09:47:00.057Z,13.10
2019-02-23T09:49:28.848Z,15.27
2019-02-23T09:51:57.679Z,13.10
2019-02-23T09:54:26.489Z,14.87
2019-02-23T09:56:55.239Z,13.27
2019-02-23T09:59:24.009Z,12.30
2019-02-23T10:01:52.768Z,18.50
2019-02-23T10:04:21.615Z,13.33
2019-02-23T10:06:50.405Z,18.20
2019-02-23T10:09:19.194Z,19.23
2019-02-23T10:11:47.959Z,10.07
2019-02-23T10:14:16.766Z,20.27
2019-02-23T10:16:45.535Z,10.50
2019-02-23T10:19:14.296Z,13.37
2019-02-23T10:21:43.152Z,34.57
2019-02-23T10:24:11.930Z,22.83
2019-02-23T10:26:40.734Z,32.97
2019-02-23T10:29:09.495Z,20.07
2019-02-23T10:31:38.257Z,18.70
2019-02-23T10:34:07.094Z,20.77
2019-02-23T10:36:36.092Z,22.10
2019-02-23T10:39:05.268Z,17.67
2019-02-23T10:41:34.030Z,26.57
2019-02-23T10:44:02.806Z,20.73
2019-02-23T10:46:31.580Z,26.27
2019-02-23T10:49:00.429Z,24.97
2019-02-23T10:51:29.264Z,24.90
2019-02-23T10:53:58.038Z,14.57
2019-02-23T10:56:26.866Z,20.87
2019-02-23T10:58:55.780Z,13.67
2019-02-23T11:01:24.665Z,19.00
2019-02-23T11:03:53.456Z,21.50
2019-02-23T11:06:22.330Z,11.80
2019-02-23T11:08:51.142Z,11.17
2019-02-23T11:11:19.949Z,9.20
2019-02-23T11:13:48.766Z,12.80
2019-02-23T11:16:17.644Z,17.23
2019-02-23T11:18:46.410Z,9.70
2019-02-23T11:21:15.155Z,12.23
2019-02-23T11:23:44.648Z,9.83
2019-02-23T11:26:13.526Z,10.47
2019-02-23T11:28:42.276Z,8.20
2019-02-23T11:31:11.097Z,9.10
2019-02-23T11:33:39.869Z,11.53
2019-02-23T11:36:08.607Z,7.57
2019-02-23T11:38:37.374Z,10.27
2019-02-23T11:41:06.126Z,6.67
2019-02-23T11:43:34.967Z,8.73
2019-02-23T11:46:03.796Z,10.57
2019-02-23T11:48:32.568Z,6.53
2019-02-23T11:51:01.382Z,8.50
2019-02-23T11:53:30.228Z,6.63
2019-02-23T11:55:59.014Z,10.90
2019-02-23T11:58:27.844Z,8.47
2019-02-23T12:00:56.772Z,8.10
2019-02-23T12:03:25.532Z,9.13
2019-02-23T12:05:54.458Z,8.37
2019-02-23T12:08:23.378Z,6.40
2019-02-23T12:10:52.220Z,8.80
2019-02-23T12:13:20.981Z,7.43
2019-02-23T12:15:49.920Z,5.70
2019-02-23T12:18:18.754Z,5.97
2019-02-23T12:20:47.519Z,12.77
2019-02-23T12:23:16.312Z,10.07
2019-02-23T12:25:45.068Z,13.30
2019-02-23T12:28:13.824Z,10.40
2019-02-23T12:30:42.563Z,7.60
2019-02-23T12:33:11.340Z,6.07
2019-02-23T12:35:40.098Z,6.20
2019-02-23T12:38:08.927Z,10.53
2019-02-23T12:40:37.677Z,5.43
2019-02-23T12:43:06.444Z,6.00
2019-02-23T12:45:35.268Z,7.90
2019-02-23T12:48:04.048Z,6.90
2019-02-23T12:50:33.515Z,7.87
2019-02-23T12:53:02.379Z,9.93
2019-02-23T12:55:31.220Z,6.20
2019-02-23T12:58:00.016Z,4.90
2019-02-23T13:00:28.799Z,6.53
2019-02-23T13:02:57.565Z,5.67
2019-02-23T13:05:26.303Z,5.93
2019-02-23T13:07:55.102Z,5.70
2019-02-23T13:10:23.924Z,6.03
2019-02-23T13:13:40.526Z,19.13
2019-02-23T13:16:15.133Z,29.33
2019-02-23T13:19:20.074Z,17.10
2019-02-23T13:22:33.644Z,7.80
2019-02-23T13:25:39.406Z,12.43
2019-02-23T13:28:55.563Z,18.60
2019-02-23T13:31:44.082Z,18.77
2019-02-23T13:34:33.080Z,13.33
2019-02-23T13:37:15.507Z,6.67
2019-02-23T13:40:31.363Z,16.93
2019-02-23T13:43:28.843Z,7.30
2019-02-23T13:46:25.896Z,8.13
2019-02-23T13:49:24.637Z,13.17
2019-02-23T13:52:21.484Z,9.80
2019-02-23T13:55:30.855Z,6.70
2019-02-23T13:58:24.290Z,5.83
2019-02-23T14:01:46.458Z,5.50
2019-02-23T14:04:48.535Z,6.53
2019-02-23T14:07:49.279Z,7.53
2019-02-23T14:11:03.416Z,8.37
2019-02-23T14:14:00.962Z,5.30
2019-02-23T14:16:59.578Z,5.10
2019-02-23T14:20:09.554Z,5.20
2019-02-23T14:23:27.293Z,5.37
2019-02-23T14:26:33.148Z,9.40
2019-02-23T14:29:36.184Z,8.07
2019-02-23T14:33:01.503Z,4.77
2019-02-23T14:36:01.778Z,6.03
2019-02-23T14:39:00.825Z,5.00
2019-02-23T14:41:47.307Z,5.90
2019-02-23T14:44:40.274Z,4.77
2019-02-23T14:47:20.925Z,4.47
2019-02-23T14:50:18.569Z,4.53
2019-02-23T14:53:19.397Z,4.57
2019-02-23T14:56:32.490Z,4.67
2019-02-23T14:59:45.597Z,4.23
2019-02-23T15:02:26.541Z,4.50
2019-02-23T15:05:49.583Z,4.80
2019-02-23T15:08:42.315Z,4.33
2019-02-23T15:11:58.763Z,4.43
2019-02-23T15:15:09.081Z,4.50
2019-02-23T15:18:34.047Z,4.47
2019-02-23T15:21:37.464Z,4.33
2019-02-23T15:24:50.472Z,4.70
2019-02-23T15:27:46.986Z,4.47
2019-02-23T15:30:44.131Z,4.37
2019-02-23T15:33:55.278Z,3.90
2019-02-23T15:37:00.239Z,4.67
2019-02-23T15:39:45.627Z,4.07
2019-02-23T15:43:03.581Z,4.10
2019-02-23T15:46:27.960Z,3.87
2019-02-23T15:49:36.171Z,3.70
2019-02-23T15:52:08.583Z,4.00
2019-02-23T15:54:37.582Z,3.97
2019-02-23T15:57:06.588Z,4.17
2019-02-23T15:59:35.459Z,4.20
2019-02-23T16:02:04.304Z,4.17
2019-02-23T16:04:33.111Z,4.40
2019-02-23T16:07:01.951Z,4.13
2019-02-23T16:09:34.478Z,3.80
2019-02-23T16:12:03.477Z,4.20
2019-02-23T16:14:32.413Z,4.17
2019-02-23T16:17:01.229Z,4.33
2019-02-23T16:19:30.057Z,4.47
2019-02-23T16:21:58.959Z,6.90
2019-02-23T16:24:27.800Z,4.60
2019-02-23T16:26:56.939Z,4.00
2019-02-23T16:29:25.865Z,4.80
2019-02-23T16:31:54.862Z,4.70
2019-02-23T16:34:23.701Z,5.40
2019-02-23T16:36:52.455Z,4.70
2019-02-23T16:39:21.352Z,4.23
2019-02-23T16:41:50.189Z,4.20
2019-02-23T16:44:19.049Z,3.90
2019-02-23T16:46:47.872Z,4.43
2019-02-23T16:49:16.650Z,5.13
2019-02-23T16:51:45.469Z,4.40
2019-02-23T16:54:14.291Z,4.40
2019-02-23T16:56:43.075Z,4.50
2019-02-23T16:59:12.079Z,4.27
2019-02-23T17:01:40.895Z,4.33
2019-02-23T17:04:09.681Z,4.70
2019-02-23T17:06:38.535Z,4.03
2019-02-23T17:09:07.503Z,4.70
2019-02-23T17:11:36.313Z,4.60
2019-02-23T17:14:05.169Z,4.40
2019-02-23T17:16:34.014Z,4.17
2019-02-23T17:19:02.854Z,4.37
2019-02-23T17:21:31.769Z,4.40
2019-02-23T17:24:00.669Z,4.37
2019-02-23T17:26:29.463Z,4.60
2019-02-23T17:28:58.421Z,4.83
2019-02-23T17:31:27.185Z,4.07
2019-02-23T17:33:55.964Z,6.40
2019-02-23T17:36:24.801Z,4.30
2019-02-23T17:38:53.796Z,4.80
2019-02-23T17:41:22.586Z,4.03
2019-02-23T17:43:54.100Z,4.23
2019-02-23T17:46:21.944Z,4.80
2019-02-23T17:48:50.898Z,4.33
2019-02-23T17:51:19.898Z,4.73
2019-02-23T17:53:48.757Z,4.17
2019-02-23T17:56:17.720Z,4.50
2019-02-23T17:58:46.555Z,4.17
2019-02-23T18:01:15.491Z,4.33
2019-02-23T18:03:44.344Z,4.00
2019-02-23T18:06:13.221Z,4.60
2019-02-23T18:08:42.735Z,4.30
2019-02-23T18:11:11.613Z,4.53
2019-02-23T18:13:40.423Z,4.20
2019-02-23T18:16:09.196Z,4.50
2019-02-23T18:18:38.051Z,3.97
2019-02-23T18:21:06.963Z,4.53
2019-02-23T18:23:35.747Z,4.70
2019-02-23T18:26:04.513Z,3.80
2019-02-23T18:28:33.292Z,4.37
2019-02-23T18:31:02.192Z,4.10
2019-02-23T18:33:30.952Z,4.40
2019-02-23T18:35:59.738Z,4.13
2019-02-23T18:38:28.493Z,3.80
2019-02-23T18:40:57.292Z,4.00
2019-02-23T18:43:26.074Z,3.90
2019-02-23T18:45:54.869Z,4.23
2019-02-23T18:48:23.830Z,4.33
2019-02-23T18:50:52.675Z,3.90
2019-02-23T18:53:21.594Z,4.30
2019-02-23T18:55:50.372Z,3.83
2019-02-23T18:58:19.143Z,4.20
2019-02-23T19:00:47.922Z,4.00
2019-02-23T19:03:16.710Z,4.60
2019-02-23T19:05:49.967Z,5.27
2019-02-23T19:08:15.977Z,8.43
2019-02-23T19:10:44.839Z,10.30
2019-02-23T19:13:13.619Z,6.17
2019-02-23T19:15:42.496Z,7.03
2019-02-23T19:18:11.254Z,4.73
2019-02-23T19:20:40.078Z,7.27
2019-02-23T19:23:08.922Z,4.23
2019-02-23T19:25:37.808Z,4.50
2019-02-23T19:28:06.699Z,8.47
2019-02-23T19:30:35.488Z,5.03
2019-02-23T19:33:04.331Z,6.60
2019-02-23T19:35:33.236Z,4.17
2019-02-23T19:38:02.087Z,8.70
2019-02-23T19:40:30.844Z,4.20
2019-02-23T19:42:59.607Z,4.23
2019-02-23T19:45:28.387Z,4.43
2019-02-23T19:47:57.175Z,4.33
2019-02-23T19:50:29.903Z,7.70
2019-02-23T19:52:58.668Z,5.00
2019-02-23T19:55:27.429Z,3.90
2019-02-23T19:57:56.203Z,4.53
2019-02-23T20:00:25.111Z,4.77
2019-02-23T20:02:53.880Z,4.30
2019-02-23T20:05:22.718Z,5.37
2019-02-23T20:07:52.716Z,5.80
2019-02-23T20:10:21.589Z,4.00
2019-02-23T20:12:50.426Z,4.50
2019-02-23T20:15:19.209Z,4.40
2019-02-23T20:17:48.039Z,4.00
2019-02-23T20:20:16.984Z,4.30
2019-02-23T20:22:45.761Z,4.20
2019-02-23T20:25:14.605Z,3.80
2019-02-23T20:27:43.465Z,4.27
2019-02-23T20:30:12.252Z,4.10
2019-02-23T20:32:41.127Z,4.47
2019-02-23T20:35:09.986Z,4.10
2019-02-23T20:37:38.914Z,4.23
2019-02-23T20:40:07.876Z,3.90
2019-02-23T20:42:36.723Z,3.83
2019-02-23T20:45:05.768Z,4.20
2019-02-23T20:47:34.740Z,4.13
2019-02-23T20:50:03.802Z,4.23
2019-02-23T20:52:32.593Z,3.83
2019-02-23T20:55:01.440Z,4.20
2019-02-23T20:57:30.204Z,3.67
2019-02-23T20:59:58.974Z,3.37
2019-02-23T21:02:27.878Z,3.63
2019-02-23T21:04:56.647Z,4.30
2019-02-23T21:07:25.391Z,3.63
2019-02-23T21:09:54.236Z,4.10
2019-02-23T21:12:22.996Z,4.00
2019-02-23T21:14:51.801Z,4.10
2019-02-23T21:17:20.589Z,4.67
2019-02-23T21:19:49.367Z,3.90
2019-02-23T21:22:19.411Z,3.67
2019-02-23T21:24:48.251Z,3.80
2019-02-23T21:27:17.003Z,3.80
2019-02-23T21:29:45.759Z,4.27
2019-02-23T21:32:14.536Z,4.30
2019-02-23T21:34:43.386Z,3.63
2019-02-23T21:37:12.124Z,3.90
2019-02-23T21:39:40.885Z,3.67
2019-02-23T21:42:09.645Z,4.03
2019-02-23T21:44:38.543Z,4.20
2019-02-23T21:47:07.319Z,3.83
2019-02-23T21:49:36.083Z,3.93
2019-02-23T21:52:04.868Z,3.73
2019-02-23T21:54:33.631Z,3.60
2019-02-23T21:57:02.434Z,3.70
2019-02-23T21:59:31.218Z,3.70
2019-02-23T22:02:00.031Z,4.23
2019-02-23T22:04:28.805Z,4.27
2019-02-23T22:06:57.611Z,3.80
2019-02-23T22:09:26.454Z,3.50
2019-02-23T22:11:55.201Z,3.97
2019-02-23T22:14:23.978Z,3.60
2019-02-23T22:16:52.720Z,3.80
2019-02-23T22:19:21.554Z,3.97
2019-02-23T22:21:50.310Z,3.67
2019-02-23T22:24:19.203Z,4.27
2019-02-23T22:26:47.960Z,3.67
2019-02-23T22:29:16.694Z,4.10
2019-02-23T22:31:45.471Z,3.67
2019-02-23T22:34:14.225Z,4.30
2019-02-23T22:36:43.089Z,3.80
2019-02-23T22:39:11.859Z,3.60
2019-02-23T22:41:49.150Z,3.90
2019-02-23T22:44:11.098Z,3.87
2019-02-23T22:46:39.845Z,3.83
2019-02-23T22:49:08.606Z,3.97
2019-02-23T22:51:37.361Z,3.60
2019-02-23T22:54:06.107Z,3.50
2019-02-23T22:56:34.928Z,3.50
2019-02-23T22:59:03.723Z,3.90
2019-02-23T23:01:32.471Z,3.80
2019-02-23T23:04:01.241Z,3.83
2019-02-23T23:06:30.002Z,3.50
2019-02-23T23:08:58.745Z,4.00
2019-02-23T23:11:27.517Z,3.80
2019-02-23T23:13:56.283Z,3.87
2019-02-23T23:16:25.173Z,4.73
2019-02-23T23:18:53.936Z,4.77
2019-02-23T23:21:22.694Z,4.07
2019-02-23T23:23:51.526Z,3.90
2019-02-23T23:26:20.279Z,3.90
2019-02-23T23:28:49.031Z,3.80
2019-02-23T23:31:17.804Z,4.10
2019-02-23T23:33:46.545Z,4.10
2019-02-23T23:36:15.308Z,3.77
2019-02-23T23:38:44.060Z,4.00
2019-02-23T23:41:12.815Z,3.37
2019-02-23T23:43:41.587Z,3.77
2019-02-23T23:46:10.319Z,3.73
2019-02-23T23:48:39.078Z,3.80
2019-02-23T23:51:07.851Z,3.60
2019-02-23T23:53:36.682Z,3.93
2019-02-23T23:56:06.027Z,3.90
2019-02-23T23:58:34.828Z,3.80
